Time;durP1;ratioP1;P1;durP2;ratioP2;P2;SDS_P1;SDS_P2;PMS_P1;PMS_P2;Temp;Humidity;BMP_temperature;BMP_pressure;BME280_temperature;BME280_humidity;BME280_pressure;Samples;Min_cycle;Max_cycle;Signal;HPM_P1;HPM_P2
2022/10/12 00:00:52;;;;;;;11.60;7.40;;;6.30;99.90;;;;;;4958939;28;20078;-64
2022/10/12 00:03:18;;;;;;;12.45;7.95;;;6.30;99.90;;;;;;4958419;28;20039;-64
2022/10/12 00:05:44;;;;;;;14.07;8.30;;;6.20;99.90;;;;;;4960795;28;20386;-64
2022/10/12 00:08:10;;;;;;;13.00;7.57;;;6.20;99.90;;;;;;4942730;28;20406;-64
2022/10/12 00:10:42;;;;;;;13.05;8.10;;;6.20;99.90;;;;;;4958213;28;20125;-65
2022/10/12 00:13:09;;;;;;;12.67;8.00;;;6.10;99.90;;;;;;4941303;28;20035;-64
2022/10/12 00:15:37;;;;;;;13.30;7.50;;;6.00;99.90;;;;;;4965450;28;20852;-65
2022/10/12 00:18:03;;;;;;;14.32;7.47;;;6.00;99.90;;;;;;4959933;28;20046;-64
2022/10/12 00:20:29;;;;;;;11.23;6.63;;;6.00;99.90;;;;;;4961651;28;20089;-63
2022/10/12 00:22:55;;;;;;;10.45;6.70;;;6.10;99.90;;;;;;4964881;28;20731;-64
2022/10/12 00:25:20;;;;;;;9.90;7.00;;;6.10;99.90;;;;;;4936154;29;20046;-64
2022/10/12 00:27:46;;;;;;;11.43;6.82;;;6.10;99.90;;;;;;4963735;28;20053;-64
2022/10/12 00:30:12;;;;;;;12.90;6.95;;;6.10;99.90;;;;;;4965984;28;20039;-64
2022/10/12 00:32:37;;;;;;;15.32;7.60;;;6.10;99.90;;;;;;4951953;28;20050;-64
2022/10/12 00:35:03;;;;;;;15.13;7.35;;;6.00;99.90;;;;;;4954721;28;20940;-64
2022/10/12 00:37:29;;;;;;;11.48;7.15;;;6.00;99.90;;;;;;4956481;28;20046;-64
2022/10/12 00:39:54;;;;;;;11.63;7.22;;;6.00;99.90;;;;;;4957404;28;20034;-64
2022/10/12 00:42:20;;;;;;;13.50;7.18;;;5.90;99.90;;;;;;4956179;28;20049;-64
2022/10/12 00:44:48;;;;;;;13.60;7.38;;;5.80;99.90;;;;;;4953024;28;20673;-64
2022/10/12 00:47:17;;;;;;;14.85;7.28;;;5.80;99.90;;;;;;4939537;28;20043;-64
2022/10/12 00:49:48;;;;;;;11.93;6.60;;;5.90;99.90;;;;;;4945857;28;20130;-64
2022/10/12 00:52:17;;;;;;;13.15;6.60;;;5.90;99.90;;;;;;4944942;28;20039;-64
2022/10/12 00:54:47;;;;;;;11.40;7.03;;;5.90;99.90;;;;;;4947846;28;20034;-64
2022/10/12 00:57:15;;;;;;;10.10;6.78;;;5.90;99.90;;;;;;4947526;28;20398;-64
2022/10/12 00:59:49;;;;;;;11.23;6.43;;;5.80;99.90;;;;;;4944427;28;20495;-64
2022/10/12 01:02:15;;;;;;;12.48;6.53;;;5.80;99.90;;;;;;4949386;28;20042;-64
2022/10/12 01:04:42;;;;;;;9.88;6.00;;;5.80;99.90;;;;;;4961406;28;20046;-64
2022/10/12 01:07:07;;;;;;;10.07;6.25;;;5.80;99.90;;;;;;4953691;28;20050;-64
2022/10/12 01:09:33;;;;;;;13.88;7.00;;;5.80;99.90;;;;;;4938880;28;20043;-64
2022/10/12 01:11:59;;;;;;;12.48;6.28;;;5.80;99.90;;;;;;4960071;28;20027;-64
2022/10/12 01:14:25;;;;;;;10.70;6.40;;;5.80;99.90;;;;;;4957169;28;20152;-64
2022/10/12 01:16:58;;;;;;;15.98;6.80;;;5.80;99.90;;;;;;4960848;28;20086;-64
2022/10/12 01:19:59;;;;;;;10.20;6.47;;;5.80;99.90;;;;;;4952917;28;20133;-64
2022/10/12 01:22:25;;;;;;;10.10;6.43;;;5.70;99.90;;;;;;4958528;28;20042;-65
2022/10/12 01:24:53;;;;;;;10.20;6.30;;;5.70;99.90;;;;;;4960654;28;20279;-65
2022/10/12 01:27:37;;;;;;;12.07;6.30;;;5.70;99.90;;;;;;4960358;28;20034;-64
2022/10/12 01:30:11;;;;;;;13.13;6.32;;;5.70;99.90;;;;;;4971783;28;20039;-64
2022/10/12 01:33:11;;;;;;;11.10;6.05;;;5.70;99.90;;;;;;4958839;28;20042;-64
2022/10/12 01:35:49;;;;;;;10.15;5.55;;;5.70;99.90;;;;;;4957895;28;20118;-64
2022/10/12 01:38:31;;;;;;;9.82;5.43;;;5.70;99.90;;;;;;4955689;28;20077;-64
2022/10/12 01:41:23;;;;;;;10.52;6.00;;;5.70;99.90;;;;;;4959137;28;20041;-64
2022/10/12 01:43:50;;;;;;;10.60;5.72;;;5.80;99.90;;;;;;4950539;28;20414;-64
2022/10/12 01:46:16;;;;;;;13.77;5.80;;;5.80;99.90;;;;;;4939387;28;20035;-64
2022/10/12 01:48:45;;;;;;;12.82;6.28;;;5.80;99.90;;;;;;4960030;28;20035;-64
2022/10/12 01:51:14;;;;;;;10.18;5.90;;;5.80;99.90;;;;;;4956783;28;20734;-64
2022/10/12 01:54:16;;;;;;;8.23;5.70;;;5.70;99.90;;;;;;4961126;28;20035;-64
2022/10/12 01:57:04;;;;;;;8.68;5.85;;;5.60;99.90;;;;;;4957435;28;20042;-64
2022/10/12 02:00:01;;;;;;;11.57;6.03;;;5.50;99.90;;;;;;4959493;28;20047;-64
2022/10/12 02:02:36;;;;;;;10.95;5.88;;;5.60;99.90;;;;;;4956451;28;20046;-64
2022/10/12 02:05:16;;;;;;;10.50;5.70;;;5.70;99.90;;;;;;4961830;28;20042;-64
2022/10/12 02:07:49;;;;;;;11.27;6.03;;;5.70;99.90;;;;;;4962361;28;20049;-63
2022/10/12 02:10:27;;;;;;;10.80;5.78;;;5.70;99.90;;;;;;4955264;28;20738;-64
2022/10/12 02:12:55;;;;;;;10.70;5.80;;;5.70;99.90;;;;;;4957872;28;20050;-64
2022/10/12 02:15:22;;;;;;;9.60;5.40;;;5.70;99.90;;;;;;4951217;28;20402;-64
2022/10/12 02:17:50;;;;;;;11.60;5.57;;;5.70;99.90;;;;;;4955970;28;20066;-65
2022/10/12 02:20:17;;;;;;;10.90;5.55;;;5.70;99.90;;;;;;4960841;28;20618;-64
2022/10/12 02:22:45;;;;;;;7.35;4.95;;;5.60;99.90;;;;;;4942323;28;20521;-65
2022/10/12 02:25:16;;;;;;;9.20;6.00;;;5.60;99.90;;;;;;4959924;28;20490;-65
2022/10/12 02:27:45;;;;;;;11.00;5.50;;;5.50;99.90;;;;;;4958017;28;20038;-64
2022/10/12 02:30:11;;;;;;;9.85;5.53;;;5.60;99.90;;;;;;4957077;28;20141;-64
2022/10/12 02:33:21;;;;;;;10.07;5.57;;;5.60;99.90;;;;;;4951758;28;20122;-64
2022/10/12 02:35:57;;;;;;;10.55;5.78;;;5.50;99.90;;;;;;4955749;28;20039;-65
2022/10/12 02:38:29;;;;;;;8.93;5.32;;;5.50;99.90;;;;;;4956581;28;20069;-65
2022/10/12 02:41:03;;;;;;;11.48;5.20;;;5.60;99.90;;;;;;4953798;28;20042;-65
2022/10/12 02:43:47;;;;;;;9.13;5.20;;;5.60;99.90;;;;;;4939323;28;20062;-65
2022/10/12 02:46:14;;;;;;;8.13;5.25;;;5.60;99.90;;;;;;4955117;28;20027;-65
2022/10/12 02:48:41;;;;;;;8.00;4.78;;;5.60;99.90;;;;;;4958206;28;20041;-65
2022/10/12 02:51:09;;;;;;;9.50;4.97;;;5.50;99.90;;;;;;4955726;28;20035;-65
2022/10/12 02:53:35;;;;;;;10.63;5.30;;;5.30;99.90;;;;;;4960919;28;20061;-64
2022/10/12 02:56:06;;;;;;;9.55;5.47;;;5.40;99.90;;;;;;4957673;28;20470;-64
2022/10/12 02:58:32;;;;;;;9.15;5.22;;;5.40;99.90;;;;;;4961972;28;20122;-64
2022/10/12 03:00:58;;;;;;;11.38;5.50;;;5.50;99.90;;;;;;4957091;28;20126;-64
2022/10/12 03:03:24;;;;;;;10.02;6.10;;;5.50;99.90;;;;;;4956523;28;20055;-64
2022/10/12 03:05:49;;;;;;;9.43;5.35;;;5.40;99.90;;;;;;4938947;28;20081;-64
2022/10/12 03:08:15;;;;;;;8.65;5.35;;;5.30;99.90;;;;;;4964918;28;20049;-64
2022/10/12 03:10:40;;;;;;;7.13;5.15;;;5.30;99.90;;;;;;4958064;28;20038;-64
2022/10/12 03:13:06;;;;;;;11.02;5.32;;;5.40;99.90;;;;;;4957728;28;20171;-65
2022/10/12 03:15:31;;;;;;;8.65;5.38;;;5.40;99.90;;;;;;4957050;28;20050;-64
2022/10/12 03:17:57;;;;;;;6.85;4.50;;;5.40;99.90;;;;;;4957671;28;20061;-65
2022/10/12 03:20:22;;;;;;;8.55;5.43;;;5.30;99.90;;;;;;4954838;28;20035;-65
2022/10/12 03:22:48;;;;;;;10.90;5.40;;;5.20;99.90;;;;;;4957766;28;20450;-64
2022/10/12 03:25:15;;;;;;;8.88;5.43;;;5.30;99.90;;;;;;4954444;28;20122;-65
2022/10/12 03:27:40;;;;;;;8.57;5.50;;;5.20;99.90;;;;;;4958539;28;20062;-65
2022/10/12 03:30:07;;;;;;;7.88;5.05;;;5.30;99.90;;;;;;4964149;28;20470;-64
2022/10/12 03:32:32;;;;;;;9.45;5.22;;;5.20;99.90;;;;;;4958658;28;20077;-65
2022/10/12 03:34:58;;;;;;;11.00;5.30;;;5.10;99.90;;;;;;4961909;28;20079;-64
2022/10/12 03:37:23;;;;;;;10.20;5.88;;;5.20;99.90;;;;;;4956383;28;20051;-64
2022/10/12 03:39:49;;;;;;;10.20;5.85;;;5.30;99.90;;;;;;4957008;28;20043;-64
2022/10/12 03:42:14;;;;;;;9.38;5.28;;;5.30;99.90;;;;;;4964860;28;20062;-65
2022/10/12 03:44:40;;;;;;;8.88;5.50;;;5.30;99.90;;;;;;4967423;28;20047;-64
2022/10/12 03:47:06;;;;;;;10.02;5.65;;;5.30;99.90;;;;;;4938342;28;20085;-64
2022/10/12 03:49:31;;;;;;;8.77;5.85;;;5.20;99.90;;;;;;4964915;28;20053;-65
2022/10/12 03:51:57;;;;;;;10.48;6.10;;;5.20;99.90;;;;;;4938741;28;20046;-65
2022/10/12 03:54:23;;;;;;;9.35;5.80;;;5.30;99.90;;;;;;4945956;28;20125;-64
2022/10/12 03:56:48;;;;;;;9.20;5.53;;;5.40;99.90;;;;;;4962993;28;20035;-64
2022/10/12 03:59:14;;;;;;;10.02;5.60;;;5.40;99.90;;;;;;4961171;28;20047;-65
2022/10/12 04:01:39;;;;;;;8.85;5.38;;;5.40;99.90;;;;;;4962323;28;20078;-65
2022/10/12 04:04:05;;;;;;;12.32;5.90;;;5.40;99.90;;;;;;4960930;28;20115;-64
2022/10/12 04:06:30;;;;;;;8.88;5.25;;;5.40;99.90;;;;;;4960629;28;20104;-64
2022/10/12 04:08:56;;;;;;;10.32;5.55;;;5.40;99.90;;;;;;4958043;28;20046;-64
2022/10/12 04:11:21;;;;;;;11.13;5.85;;;5.20;99.90;;;;;;4959808;28;20043;-64
2022/10/12 04:13:47;;;;;;;9.98;5.63;;;5.20;99.90;;;;;;4956869;28;20171;-64
2022/10/12 04:16:13;;;;;;;10.35;5.35;;;5.20;99.90;;;;;;4961372;28;20054;-64
2022/10/12 04:18:38;;;;;;;7.68;5.53;;;5.30;99.90;;;;;;4960831;28;20873;-64
2022/10/12 04:21:10;;;;;;;9.95;5.07;;;5.30;99.90;;;;;;4961229;28;20093;-64
2022/10/12 04:23:36;;;;;;;7.50;5.13;;;5.30;99.90;;;;;;4961879;28;20559;-64
2022/10/12 04:26:01;;;;;;;9.63;5.43;;;5.30;99.90;;;;;;4961149;28;20046;-64
2022/10/12 04:28:27;;;;;;;8.88;5.55;;;5.30;99.90;;;;;;4959101;28;20106;-64
2022/10/12 04:30:52;;;;;;;8.55;5.40;;;5.30;99.90;;;;;;4963141;28;20038;-64
2022/10/12 04:33:18;;;;;;;8.65;5.55;;;5.30;99.90;;;;;;4958808;28;20062;-65
2022/10/12 04:35:43;;;;;;;8.95;5.75;;;5.20;99.90;;;;;;4958529;28;20034;-64
2022/10/12 04:38:09;;;;;;;11.00;6.05;;;5.40;99.90;;;;;;4953028;28;20051;-64
2022/10/12 04:40:35;;;;;;;9.52;6.53;;;5.40;99.90;;;;;;4945584;28;20039;-64
2022/10/12 04:43:00;;;;;;;10.23;6.32;;;5.40;99.90;;;;;;4958410;28;20065;-65
2022/10/12 04:45:26;;;;;;;11.82;6.32;;;5.40;99.90;;;;;;4958683;28;20034;-64
2022/10/12 04:47:51;;;;;;;9.80;5.68;;;5.40;99.90;;;;;;4960676;28;20109;-65
2022/10/12 04:50:17;;;;;;;12.65;6.20;;;5.30;99.90;;;;;;4961903;28;20075;-64
2022/10/12 04:52:42;;;;;;;8.18;5.55;;;5.40;99.90;;;;;;4957804;28;20091;-64
2022/10/12 04:55:08;;;;;;;9.18;5.93;;;5.30;99.90;;;;;;4959743;28;20042;-64
2022/10/12 04:57:34;;;;;;;7.82;5.57;;;5.40;99.90;;;;;;4961000;28;20065;-64
2022/10/12 04:59:59;;;;;;;9.27;5.90;;;5.40;99.90;;;;;;4957816;28;20432;-64
2022/10/12 05:02:25;;;;;;;9.60;6.00;;;5.30;99.90;;;;;;4960440;28;20102;-64
2022/10/12 05:04:51;;;;;;;8.02;5.50;;;5.20;99.90;;;;;;4958606;28;20034;-64
2022/10/12 05:07:17;;;;;;;10.02;6.55;;;5.20;99.90;;;;;;4953796;28;20078;-64
2022/10/12 05:09:42;;;;;;;10.82;5.93;;;5.20;99.90;;;;;;4956992;28;20070;-65
2022/10/12 05:12:08;;;;;;;9.90;6.28;;;5.30;99.90;;;;;;4950234;28;20031;-65
2022/10/12 05:14:34;;;;;;;10.60;6.15;;;5.30;99.90;;;;;;4957863;28;20039;-64
2022/10/12 05:16:59;;;;;;;13.98;6.45;;;5.30;99.90;;;;;;4934103;28;21137;-64
2022/10/12 05:19:25;;;;;;;9.73;5.78;;;5.30;99.90;;;;;;4954843;28;20043;-64
2022/10/12 05:21:52;;;;;;;9.85;5.85;;;5.30;99.90;;;;;;4961347;28;20118;-64
2022/10/12 05:24:17;;;;;;;10.52;5.47;;;5.30;99.90;;;;;;4960956;28;20045;-64
2022/10/12 05:26:43;;;;;;;10.02;5.32;;;5.30;99.90;;;;;;4955696;28;20035;-64
2022/10/12 05:29:08;;;;;;;8.95;5.88;;;5.30;99.90;;;;;;4950652;28;20082;-64
2022/10/12 05:31:34;;;;;;;8.40;5.40;;;5.20;99.90;;;;;;4932856;28;20035;-64
2022/10/12 05:33:59;;;;;;;10.90;5.63;;;5.00;99.90;;;;;;4953118;28;20031;-64
2022/10/12 05:36:25;;;;;;;10.65;5.40;;;5.00;99.90;;;;;;4952212;28;20193;-64
2022/10/12 05:38:51;;;;;;;13.23;6.97;;;5.10;99.90;;;;;;4935671;28;20046;-64
2022/10/12 05:41:16;;;;;;;11.55;6.97;;;5.00;99.90;;;;;;4952463;28;20039;-64
2022/10/12 05:43:42;;;;;;;12.13;6.10;;;4.90;99.90;;;;;;4957074;28;21031;-64
2022/10/12 05:46:07;;;;;;;13.23;7.35;;;4.90;99.90;;;;;;4959061;28;20046;-64
2022/10/12 05:48:33;;;;;;;11.70;6.90;;;4.90;99.90;;;;;;4954954;28;20027;-64
2022/10/12 05:50:59;;;;;;;12.00;7.00;;;4.90;99.90;;;;;;4959959;28;20065;-64
2022/10/12 05:53:24;;;;;;;11.65;7.32;;;5.00;99.90;;;;;;4963563;28;20095;-64
2022/10/12 05:55:58;;;;;;;13.30;7.60;;;5.00;99.90;;;;;;4945042;28;20137;-63
2022/10/12 05:58:25;;;;;;;13.40;7.20;;;4.90;99.90;;;;;;4956676;28;20122;-63
2022/10/12 06:00:50;;;;;;;13.48;7.35;;;5.00;99.90;;;;;;4955926;28;20043;-64
2022/10/12 06:03:16;;;;;;;15.55;7.90;;;5.00;99.90;;;;;;4967772;28;20078;-64
2022/10/12 06:05:42;;;;;;;12.60;7.70;;;5.00;99.90;;;;;;4947346;28;20031;-64
2022/10/12 06:08:08;;;;;;;15.85;7.70;;;5.00;99.90;;;;;;4963221;28;20379;-64
2022/10/12 06:10:43;;;;;;;15.93;8.18;;;4.90;99.90;;;;;;4957980;28;20035;-63
2022/10/12 06:13:09;;;;;;;16.92;8.50;;;4.90;99.90;;;;;;4959965;28;20339;-63
2022/10/12 06:15:35;;;;;;;17.48;8.68;;;4.90;99.90;;;;;;4941591;28;20042;-64
2022/10/12 06:18:01;;;;;;;17.05;8.30;;;4.90;99.90;;;;;;4944223;28;20077;-64
2022/10/12 06:20:26;;;;;;;18.25;9.07;;;4.90;99.90;;;;;;4954802;28;20039;-63
2022/10/12 06:22:52;;;;;;;16.67;8.15;;;4.90;99.90;;;;;;4939186;28;20031;-64
2022/10/12 06:25:17;;;;;;;17.70;8.70;;;5.00;99.90;;;;;;4961222;28;20170;-64
2022/10/12 06:27:46;;;;;;;18.83;8.85;;;5.00;99.90;;;;;;4956113;28;20105;-64
2022/10/12 06:30:12;;;;;;;16.60;9.82;;;4.90;99.90;;;;;;4952814;28;20046;-64
2022/10/12 06:32:38;;;;;;;15.98;8.73;;;5.10;99.90;;;;;;4958757;28;20038;-64
2022/10/12 06:35:04;;;;;;;14.57;8.98;;;5.10;99.90;;;;;;4942110;28;20064;-64
2022/10/12 06:37:30;;;;;;;15.48;9.68;;;5.10;99.90;;;;;;4958886;28;20082;-64
2022/10/12 06:39:56;;;;;;;25.15;9.82;;;5.20;99.90;;;;;;4954447;28;20851;-64
2022/10/12 06:42:22;;;;;;;18.75;9.63;;;5.20;99.90;;;;;;4957082;28;20067;-63
2022/10/12 06:44:47;;;;;;;16.15;9.40;;;5.30;99.90;;;;;;4959053;28;20155;-64
2022/10/12 06:47:13;;;;;;;13.80;8.88;;;5.30;99.90;;;;;;4950006;28;20119;-64
2022/10/12 06:49:38;;;;;;;16.90;9.82;;;5.40;99.90;;;;;;4957633;28;20105;-64
2022/10/12 06:52:04;;;;;;;16.30;10.98;;;5.40;99.90;;;;;;4955210;28;20074;-61
2022/10/12 06:54:30;;;;;;;15.90;10.38;;;5.50;99.90;;;;;;4953524;28;20455;-61
2022/10/12 06:56:55;;;;;;;17.88;11.52;;;5.60;99.90;;;;;;4951995;28;20045;-61
2022/10/12 06:59:21;;;;;;;19.90;12.10;;;5.70;99.90;;;;;;4952841;28;20054;-61
2022/10/12 07:01:48;;;;;;;25.63;13.30;;;5.80;99.90;;;;;;4958686;28;20043;-61
2022/10/12 07:04:14;;;;;;;23.20;14.23;;;6.00;99.90;;;;;;4954784;28;20047;-61
2022/10/12 07:06:40;;;;;;;24.48;14.48;;;6.10;99.90;;;;;;4954782;28;20042;-61
2022/10/12 07:09:05;;;;;;;22.67;14.63;;;6.30;99.90;;;;;;4956307;28;20036;-61
2022/10/12 07:11:31;;;;;;;31.05;17.75;;;6.50;99.90;;;;;;4954172;28;20037;-61
2022/10/12 07:13:57;;;;;;;29.00;18.88;;;6.60;99.90;;;;;;4957093;28;20130;-61
2022/10/12 07:16:22;;;;;;;37.05;26.65;;;6.80;99.90;;;;;;4955915;28;20043;-61
2022/10/12 07:18:48;;;;;;;43.80;28.70;;;6.90;99.90;;;;;;4958692;28;20519;-61
2022/10/12 07:21:14;;;;;;;43.97;29.30;;;7.20;99.90;;;;;;4962694;28;20057;-61
2022/10/12 07:23:39;;;;;;;46.80;30.63;;;7.30;99.90;;;;;;4965416;28;20058;-61
2022/10/12 07:26:06;;;;;;;46.35;31.17;;;7.40;99.90;;;;;;4959660;28;20097;-61
2022/10/12 07:28:33;;;;;;;45.20;31.17;;;7.50;99.90;;;;;;4958760;28;20035;-61
2022/10/12 07:31:00;;;;;;;44.58;31.33;;;7.60;99.90;;;;;;4957450;28;20561;-61
2022/10/12 07:33:29;;;;;;;50.15;31.45;;;7.60;99.90;;;;;;4960667;28;20453;-61
2022/10/12 07:35:55;;;;;;;45.60;29.50;;;7.80;99.90;;;;;;4945313;28;20043;-61
2022/10/12 07:38:20;;;;;;;43.85;27.13;;;7.90;99.90;;;;;;4956570;28;20035;-61
2022/10/12 07:40:46;;;;;;;42.70;28.13;;;8.10;99.90;;;;;;4966497;28;20038;-61
2022/10/12 07:43:12;;;;;;;39.55;26.13;;;8.00;99.90;;;;;;4955019;28;20507;-61
2022/10/12 07:45:38;;;;;;;38.58;25.27;;;8.10;99.90;;;;;;4958923;28;20066;-61
2022/10/12 07:48:04;;;;;;;41.00;22.50;;;8.20;99.90;;;;;;4952327;28;20486;-61
2022/10/12 07:50:29;;;;;;;32.85;20.10;;;8.30;99.90;;;;;;4964401;28;20116;-61
2022/10/12 07:52:56;;;;;;;30.73;18.40;;;8.40;99.90;;;;;;4962257;28;20416;-61
2022/10/12 07:55:21;;;;;;;31.13;17.42;;;8.40;99.90;;;;;;4961053;28;20054;-61
2022/10/12 07:57:47;;;;;;;36.58;17.80;;;8.40;99.90;;;;;;4955202;28;20657;-62
2022/10/12 08:00:13;;;;;;;27.30;16.00;;;8.50;99.90;;;;;;4958611;28;20035;-61
2022/10/12 08:02:38;;;;;;;24.77;15.77;;;8.50;99.90;;;;;;4964687;28;20035;-61
2022/10/12 08:05:04;;;;;;;30.45;16.70;;;8.50;99.90;;;;;;4960108;28;20027;-61
2022/10/12 08:07:30;;;;;;;24.17;13.95;;;8.60;99.90;;;;;;4957062;28;20046;-61
2022/10/12 08:09:56;;;;;;;23.73;13.45;;;8.60;99.90;;;;;;4956198;28;20042;-62
2022/10/12 08:12:21;;;;;;;24.63;12.27;;;8.60;99.90;;;;;;4963531;28;20125;-62
2022/10/12 08:14:47;;;;;;;20.13;10.73;;;8.60;99.90;;;;;;4958684;28;20074;-62
2022/10/12 08:17:12;;;;;;;32.83;15.82;;;8.70;99.90;;;;;;4960085;28;20529;-61
2022/10/12 08:19:38;;;;;;;30.27;18.38;;;8.80;99.90;;;;;;4963015;28;20122;-61
2022/10/12 08:22:03;;;;;;;19.17;9.40;;;9.00;99.90;;;;;;4962095;28;20043;-61
2022/10/12 08:24:29;;;;;;;18.63;9.32;;;9.00;99.90;;;;;;4953620;28;20402;-62
2022/10/12 08:26:54;;;;;;;21.05;8.25;;;9.10;99.90;;;;;;4958548;28;20053;-62
2022/10/12 08:29:20;;;;;;;14.95;8.23;;;9.10;99.90;;;;;;4947939;28;20039;-62
2022/10/12 08:31:49;;;;;;;19.27;7.72;;;9.20;99.90;;;;;;4962624;28;20034;-62
2022/10/12 08:34:15;;;;;;;16.83;8.60;;;;;;;;;;4952198;28;20032;-62
2022/10/12 08:36:41;;;;;;;16.77;8.38;;;9.40;99.90;;;;;;4951204;28;20054;-62
2022/10/12 08:39:07;;;;;;;17.35;7.80;;;9.60;99.90;;;;;;4952715;28;20043;-62
2022/10/12 08:41:57;;;;;;;23.20;8.40;;;9.70;99.90;;;;;;4958604;28;20035;-62
2022/10/12 08:45:01;;;;;;;15.35;7.95;;;9.90;99.90;;;;;;4954966;28;20049;-62
2022/10/12 08:48:02;;;;;;;21.15;9.20;;;10.10;99.90;;;;;;4946804;28;20586;-62
2022/10/12 08:50:41;;;;;;;29.55;12.75;;;10.20;99.90;;;;;;4958718;28;20038;-62
2022/10/12 08:53:21;;;;;;;25.15;10.63;;;10.30;99.90;;;;;;4956751;28;20043;-62
2022/10/12 08:55:47;;;;;;;23.85;9.05;;;10.30;99.90;;;;;;4958975;28;20297;-62
2022/10/12 08:58:22;;;;;;;38.30;13.13;;;10.40;99.90;;;;;;4954980;28;20039;-62
2022/10/12 09:00:54;;;;;;;24.23;9.45;;;10.70;99.90;;;;;;4955410;28;20070;-62
2022/10/12 09:03:37;;;;;;;26.70;11.55;;;11.00;99.90;;;;;;4952710;28;20039;-62
2022/10/12 09:06:18;;;;;;;17.83;6.75;;;10.80;99.90;;;;;;4958969;28;20609;-62
2022/10/12 09:08:55;;;;;;;10.50;5.72;;;10.90;99.90;;;;;;4951726;28;20034;-62
2022/10/12 09:11:51;;;;;;;14.20;5.88;;;10.90;99.90;;;;;;4951787;28;20138;-59
2022/10/12 09:14:23;;;;;;;12.43;5.50;;;11.30;99.90;;;;;;4951811;28;20122;-61
2022/10/12 09:16:50;;;;;;;12.88;5.43;;;11.00;99.90;;;;;;4952814;28;20034;-61
2022/10/12 09:19:52;;;;;;;17.00;5.80;;;11.70;99.90;;;;;;4951222;28;20036;-61
2022/10/12 09:22:18;;;;;;;11.70;5.22;;;11.10;99.90;;;;;;4917589;28;20046;-61
2022/10/12 09:24:47;;;;;;;16.67;6.30;;;11.10;99.90;;;;;;4955303;28;20087;-59
2022/10/12 09:27:18;;;;;;;14.07;5.55;;;11.10;99.90;;;;;;4953944;28;20630;-60
2022/10/12 09:29:50;;;;;;;17.30;6.28;;;11.10;99.90;;;;;;4954960;28;20193;-60
2022/10/12 09:32:28;;;;;;;12.80;5.18;;;11.20;99.90;;;;;;4957604;28;20039;-59
2022/10/12 09:34:54;;;;;;;16.38;5.38;;;11.10;99.90;;;;;;4955248;28;20077;-60
2022/10/12 09:37:21;;;;;;;13.55;5.22;;;11.20;99.90;;;;;;4954394;28;20039;-60
2022/10/12 09:39:48;;;;;;;15.80;5.57;;;11.20;99.90;;;;;;4954798;28;20154;-60
2022/10/12 09:42:14;;;;;;;12.23;5.25;;;11.10;99.90;;;;;;4955724;28;20422;-60
2022/10/12 09:44:45;;;;;;;12.13;5.13;;;11.20;99.90;;;;;;4936398;28;20106;-61
2022/10/12 09:47:20;;;;;;;51.20;30.52;;;11.20;99.90;;;;;;4957786;28;20038;-61
2022/10/12 09:49:50;;;;;;;40.42;20.20;;;11.30;99.90;;;;;;4960874;28;20035;-61
2022/10/12 09:52:20;;;;;;;17.83;6.85;;;11.40;99.90;;;;;;4939227;28;20102;-61
2022/10/12 09:54:49;;;;;;;14.50;6.65;;;11.50;99.90;;;;;;4952778;28;20043;-61
2022/10/12 09:57:36;;;;;;;14.50;6.30;;;11.50;99.90;;;;;;4958722;28;20097;-61
2022/10/12 10:00:05;;;;;;;13.40;6.43;;;11.60;99.90;;;;;;4958334;28;20459;-60
2022/10/12 10:02:33;;;;;;;17.83;7.63;;;11.60;99.90;;;;;;4956867;28;20487;-60
2022/10/12 10:05:30;;;;;;;22.00;8.15;;;11.70;99.90;;;;;;4940065;28;20702;-60
2022/10/12 10:08:28;;;;;;;25.50;7.85;;;11.40;99.90;;;;;;4937940;28;20077;-60
2022/10/12 10:10:56;;;;;;;14.75;8.00;;;11.90;99.90;;;;;;4911499;28;20039;-60
2022/10/12 10:13:24;;;;;;;16.75;7.05;;;11.90;99.90;;;;;;4939447;28;20049;-60
2022/10/12 10:16:00;;;;;;;21.23;8.27;;;11.70;99.90;;;;;;4953856;28;20713;-60
2022/10/12 10:18:47;;;;;;;21.63;8.45;;;11.80;99.90;;;;;;4963071;28;20486;-61
2022/10/12 10:21:16;;;;;;;13.93;7.60;;;11.80;99.90;;;;;;4951309;28;20037;-61
2022/10/12 10:23:52;;;;;;;16.95;7.32;;;11.80;99.90;;;;;;4957949;28;20039;-60
2022/10/12 10:26:20;;;;;;;15.82;6.45;;;11.90;99.90;;;;;;4954426;28;20122;-61
2022/10/12 10:28:48;;;;;;;15.25;5.45;;;11.90;99.90;;;;;;4958485;28;20069;-61
2022/10/12 10:31:15;;;;;;;9.65;4.70;;;12.00;99.90;;;;;;4962726;28;20034;-61
2022/10/12 10:33:40;;;;;;;17.63;5.78;;;12.00;99.90;;;;;;4957487;28;20075;-61
2022/10/12 10:36:25;;;;;;;13.35;5.03;;;12.00;99.90;;;;;;4957304;28;20066;-60
2022/10/12 10:39:01;;;;;;;16.52;5.43;;;12.00;99.90;;;;;;4953724;28;20047;-60
2022/10/12 10:41:40;;;;;;;14.52;5.03;;;12.10;99.90;;;;;;4959734;28;20446;-60
2022/10/12 10:44:28;;;;;;;12.60;5.07;;;12.10;99.90;;;;;;4957998;28;20042;-60
2022/10/12 10:46:57;;;;;;;12.88;4.63;;;12.20;99.90;;;;;;4959647;28;20079;-61
2022/10/12 10:49:39;;;;;;;11.00;4.82;;;12.40;99.90;;;;;;4956575;28;20047;-61
2022/10/12 10:52:16;;;;;;;18.55;5.07;;;11.90;99.90;;;;;;4960284;28;20570;-61
2022/10/12 10:54:43;;;;;;;63.53;42.72;;;11.40;99.90;;;;;;4956139;28;20089;-62
2022/10/12 10:57:20;;;;;;;165.75;115.10;;;12.60;99.90;;;;;;4954472;28;20078;-58
2022/10/12 10:59:54;;;;;;;16.02;6.53;;;12.60;99.90;;;;;;4948872;28;20484;-60
2022/10/12 11:02:30;;;;;;;12.13;4.93;;;12.50;99.90;;;;;;4954261;28;20054;-61
2022/10/12 11:05:13;;;;;;;11.05;5.07;;;12.50;99.90;;;;;;4958469;28;20042;-61
2022/10/12 11:07:45;;;;;;;12.18;4.93;;;12.60;99.90;;;;;;4938253;28;20043;-60
2022/10/12 11:10:23;;;;;;;11.60;4.75;;;12.30;99.90;;;;;;4957176;28;20039;-60
2022/10/12 11:12:55;;;;;;;15.73;4.50;;;12.80;99.90;;;;;;4955260;28;20101;-61
2022/10/12 11:15:25;;;;;;;12.95;4.13;;;12.90;99.90;;;;;;4950247;28;20410;-59
2022/10/12 11:18:02;;;;;;;11.57;4.60;;;13.00;99.90;;;;;;4948044;28;20044;-59
2022/10/12 11:20:30;;;;;;;12.40;4.43;;;;;;;;;;4953003;28;20345;-60
2022/10/12 11:23:02;;;;;;;14.05;4.20;;;13.10;99.90;;;;;;4953791;28;20032;-60
2022/10/12 11:25:40;;;;;;;15.52;4.35;;;13.10;99.90;;;;;;4957305;28;20031;-59
2022/10/12 11:28:06;;;;;;;17.02;4.97;;;13.10;99.90;;;;;;4953413;28;20088;-60
2022/10/12 11:30:38;;;;;;;14.10;4.65;;;13.20;99.90;;;;;;4957002;28;20146;-60
2022/10/12 11:33:05;;;;;;;11.23;4.65;;;13.30;99.90;;;;;;4949385;28;20122;-59
2022/10/12 11:35:35;;;;;;;14.43;4.63;;;13.20;99.90;;;;;;4950634;28;20031;-60
2022/10/12 11:38:24;;;;;;;13.20;4.45;;;13.40;99.90;;;;;;4939097;28;20038;-60
2022/10/12 11:41:03;;;;;;;11.00;4.30;;;13.50;99.90;;;;;;4956658;28;20121;-60
2022/10/12 11:43:51;;;;;;;14.15;4.88;;;13.60;99.90;;;;;;4953995;28;20344;-60
2022/10/12 11:46:20;;;;;;;13.90;4.28;;;13.60;99.90;;;;;;4913130;28;20038;-58
2022/10/12 11:48:53;;;;;;;11.35;4.60;;;13.70;99.90;;;;;;4962087;28;20057;-60
2022/10/12 11:51:19;;;;;;;16.88;5.75;;;13.80;99.90;;;;;;4956365;28;20034;-59
2022/10/12 11:54:09;;;;;;;22.05;13.77;;;13.80;99.90;;;;;;4950271;28;20037;-59
2022/10/12 11:56:48;;;;;;;12.65;5.85;;;13.70;99.90;;;;;;4951156;28;20042;-60
2022/10/12 11:59:46;;;;;;;14.13;5.47;;;13.70;99.90;;;;;;4960309;28;20057;-60
2022/10/12 12:02:34;;;;;;;12.27;4.95;;;13.70;99.90;;;;;;4940894;28;20089;-59
2022/10/12 12:05:01;;;;;;;14.82;5.63;;;13.80;99.90;;;;;;4960971;28;20525;-60
2022/10/12 12:07:42;;;;;;;13.55;5.90;;;13.80;99.90;;;;;;4960369;28;20526;-59
2022/10/12 12:10:25;;;;;;;15.88;5.88;;;13.90;99.90;;;;;;4962007;28;20138;-59
2022/10/12 12:13:18;;;;;;;11.80;5.63;;;13.90;99.90;;;;;;4964243;28;20057;-60
2022/10/12 12:15:46;;;;;;;15.45;6.25;;;14.00;99.90;;;;;;4956003;28;20493;-60
2022/10/12 12:18:21;;;;;;;16.30;5.90;;;14.10;99.90;;;;;;4962316;28;20038;-60
2022/10/12 12:20:47;;;;;;;13.90;5.78;;;14.20;99.90;;;;;;4961682;28;20057;-61
2022/10/12 12:23:37;;;;;;;12.77;5.18;;;14.20;99.90;;;;;;4962027;28;20117;-60
2022/10/12 12:26:08;;;;;;;15.20;5.97;;;14.20;99.90;;;;;;4956658;28;20133;-61
2022/10/12 12:28:38;;;;;;;17.50;5.57;;;14.20;99.90;;;;;;4959223;28;20038;-61
2022/10/12 12:31:25;;;;;;;10.98;5.20;;;14.20;99.90;;;;;;4957553;28;20114;-61
2022/10/12 12:34:12;;;;;;;12.30;4.95;;;14.30;99.90;;;;;;4956975;28;20231;-61
2022/10/12 12:36:44;;;;;;;11.52;4.72;;;14.30;99.90;;;;;;4950163;28;20047;-61
2022/10/12 12:39:32;;;;;;;15.80;4.70;;;14.30;99.90;;;;;;4945728;28;20091;-61
2022/10/12 12:42:00;;;;;;;13.73;4.85;;;14.40;99.90;;;;;;4963331;28;20051;-60
2022/10/12 12:44:46;;;;;;;12.57;4.85;;;14.50;99.90;;;;;;4959151;28;20153;-61
2022/10/12 12:47:12;;;;;;;12.13;4.13;;;14.70;99.90;;;;;;4963307;28;20038;-60
2022/10/12 12:49:49;;;;;;;15.85;4.40;;;14.70;99.90;;;;;;4961195;28;20268;-60
2022/10/12 12:52:23;;;;;;;15.40;4.22;;;14.70;99.90;;;;;;4956877;28;20034;-61
2022/10/12 12:54:59;;;;;;;10.90;3.97;;;14.70;99.90;;;;;;4955066;28;20447;-61
2022/10/12 12:57:42;;;;;;;13.52;4.40;;;14.70;99.90;;;;;;4954040;28;20035;-61
2022/10/12 13:00:21;;;;;;;10.98;3.90;;;14.70;99.90;;;;;;4955448;28;20121;-61
2022/10/12 13:03:08;;;;;;;10.38;3.95;;;14.80;99.90;;;;;;4963687;28;20644;-61